Rushford, MN

11:16 PM CST on January 28, 2015 (GMT -0600)
500 Nannestad Lane | Change Station
CLOSE
Current Station
Personal Weather Station
Location: Rushford, MN
Elevation: 728 ft
Nearby Weather Stations
Active Advisory: Special Statement

Elev 728 ft 43.81 °N, 91.75 °W | Updated 1 minute ago

Overcast
Overcast
32.0 °F
Feels Like 32 °F
N
0.0
Wind Variable Wind from NNW

Today
High -- | Low -- °F
--% Chance of Precip.
Yesterday
High -- | Low -- °F
Precip. -- in
7:28 AM 5:12 PM
Waxing Gibbous, 71% visible
Pressure 29.81 in
Visibility 10.0 miles
Clouds Overcast 2000 ft
Windchill 32 °F
Dew Point 26 °F
Humidity 79%
Rainfall 0.00 in
Snow Depth Not available.
UV 0 out of 12
Pollen .10 out of 12
Air Quality Not available.
Flu Activity Not available.
METAR KONA 290500Z AUTO 00000KT 10SM OVC020 00/M03 A2981 RMK AO2

More Conditions Fewer Conditions

Pressure 29.81 in
Visibility 10.0 miles
Clouds Overcast 2000 ft
Windchill 32 °F
Dew Point 26 °F
Humidity 79%
Rainfall 0.00 in
Snow Depth Not available.
UV 0 out of 12
Pollen .10 out of 12
Air Quality Not available.
Flu Activity Not available.
METAR KONA 290500Z AUTO 00000KT 10SM OVC020 00/M03 A2981 RMK AO2

More Conditions Fewer Conditions

10-Day Weather Forecast

Almanac

Astronomy

Jan. 28, 2015 Rise Set
Actual Time
Civil Twilight
Nautical Twilight
Astronomical Twilight
Moon
Length of Visible Light
Length of Day
Tomorrow will be .
, % of the Moon is Illuminated

Today's Extremes

State Highs State Lows

Community

WunderPhotos

Upload Photos

1,791,357 photos uploaded!

WunderBlogs® & News

Nearby

Air Quality

  Air Quality AQ Index Pollutant
Not available.

Snow Depth

Station Depth Elevation

Earthquake Activity

City Distance Mag. Time & Date
Minimum magnitude displayed is 2.5.

Coastal Water Temperatures

Place Temperature

Nearby Weather Stations